sensor_id;sensor_type;location;lat;lon;timestamp;P1;durP1;ratioP1;P2;durP2;ratioP2
70560;SDS011;58109;53.570;10.084;2023-07-16T00:02:14;14.63;;;13.07;;
70560;SDS011;58109;53.570;10.084;2023-07-16T00:04:40;16.23;;;13.70;;
70560;SDS011;58109;53.570;10.084;2023-07-16T00:07:07;15.47;;;12.80;;
70560;SDS011;58109;53.570;10.084;2023-07-16T00:09:33;21.17;;;15.57;;
70560;SDS011;58109;53.570;10.084;2023-07-16T00:12:04;16.50;;;12.50;;
70560;SDS011;58109;53.570;10.084;2023-07-16T00:14:37;14.10;;;9.20;;
70560;SDS011;58109;53.570;10.084;2023-07-16T00:17:02;16.13;;;12.07;;
70560;SDS011;58109;53.570;10.084;2023-07-16T00:19:31;11.20;;;8.23;;
70560;SDS011;58109;53.570;10.084;2023-07-16T00:21:56;17.07;;;14.33;;
70560;SDS011;58109;53.570;10.084;2023-07-16T00:24:23;26.47;;;18.00;;
70560;SDS011;58109;53.570;10.084;2023-07-16T00:26:52;13.10;;;10.33;;
70560;SDS011;58109;53.570;10.084;2023-07-16T00:29:20;14.30;;;12.80;;
70560;SDS011;58109;53.570;10.084;2023-07-16T00:31:45;19.67;;;15.77;;
70560;SDS011;58109;53.570;10.084;2023-07-16T00:34:10;13.30;;;7.87;;
70560;SDS011;58109;53.570;10.084;2023-07-16T00:36:40;11.53;;;10.47;;
70560;SDS011;58109;53.570;10.084;2023-07-16T00:39:05;11.80;;;10.43;;
70560;SDS011;58109;53.570;10.084;2023-07-16T00:41:31;19.20;;;16.00;;
70560;SDS011;58109;53.570;10.084;2023-07-16T00:43:57;21.57;;;17.70;;
70560;SDS011;58109;53.570;10.084;2023-07-16T00:46:22;31.70;;;20.17;;
70560;SDS011;58109;53.570;10.084;2023-07-16T00:48:53;23.23;;;14.83;;
70560;SDS011;58109;53.570;10.084;2023-07-16T00:51:19;19.90;;;13.80;;
70560;SDS011;58109;53.570;10.084;2023-07-16T00:53:48;53.20;;;28.73;;
70560;SDS011;58109;53.570;10.084;2023-07-16T00:56:15;37.93;;;20.90;;
70560;SDS011;58109;53.570;10.084;2023-07-16T00:58:42;39.60;;;23.87;;
70560;SDS011;58109;53.570;10.084;2023-07-16T01:03:42;66.57;;;32.33;;
70560;SDS011;58109;53.570;10.084;2023-07-16T01:08:41;47.53;;;24.50;;
70560;SDS011;58109;53.570;10.084;2023-07-16T01:11:08;45.00;;;24.23;;
70560;SDS011;58109;53.570;10.084;2023-07-16T01:13:38;24.40;;;16.87;;
70560;SDS011;58109;53.570;10.084;2023-07-16T01:16:04;17.13;;;13.90;;
70560;SDS011;58109;53.570;10.084;2023-07-16T01:18:30;14.33;;;12.53;;
70560;SDS011;58109;53.570;10.084;2023-07-16T01:20:57;16.93;;;13.80;;
70560;SDS011;58109;53.570;10.084;2023-07-16T01:31:56;12.00;;;10.90;;
70560;SDS011;58109;53.570;10.084;2023-07-16T01:34:22;15.90;;;11.07;;
70560;SDS011;58109;53.570;10.084;2023-07-16T01:36:52;21.63;;;16.70;;
70560;SDS011;58109;53.570;10.084;2023-07-16T01:39:18;20.00;;;15.53;;
70560;SDS011;58109;53.570;10.084;2023-07-16T01:41:43;15.83;;;14.03;;
70560;SDS011;58109;53.570;10.084;2023-07-16T01:44:11;26.17;;;17.67;;
70560;SDS011;58109;53.570;10.084;2023-07-16T01:46:37;15.77;;;14.17;;
70560;SDS011;58109;53.570;10.084;2023-07-16T01:49:02;8.07;;;7.37;;
70560;SDS011;58109;53.570;10.084;2023-07-16T01:51:30;21.87;;;17.20;;
70560;SDS011;58109;53.570;10.084;2023-07-16T01:53:55;25.40;;;17.87;;
70560;SDS011;58109;53.570;10.084;2023-07-16T01:56:23;17.50;;;11.20;;
70560;SDS011;58109;53.570;10.084;2023-07-16T01:58:49;8.87;;;8.07;;
70560;SDS011;58109;53.570;10.084;2023-07-16T02:01:19;24.67;;;16.37;;
70560;SDS011;58109;53.570;10.084;2023-07-16T02:03:46;10.53;;;8.80;;
70560;SDS011;58109;53.570;10.084;2023-07-16T02:06:12;12.40;;;11.07;;
70560;SDS011;58109;53.570;10.084;2023-07-16T02:08:42;12.43;;;8.70;;
70560;SDS011;58109;53.570;10.084;2023-07-16T02:11:07;13.73;;;12.30;;
70560;SDS011;58109;53.570;10.084;2023-07-16T02:13:32;25.40;;;16.60;;
70560;SDS011;58109;53.570;10.084;2023-07-16T02:16:01;23.17;;;16.50;;
70560;SDS011;58109;53.570;10.084;2023-07-16T02:18:29;20.23;;;15.93;;
70560;SDS011;58109;53.570;10.084;2023-07-16T02:20:54;12.53;;;8.63;;
70560;SDS011;58109;53.570;10.084;2023-07-16T02:23:20;12.10;;;6.57;;
70560;SDS011;58109;53.570;10.084;2023-07-16T02:25:45;9.70;;;8.80;;
70560;SDS011;58109;53.570;10.084;2023-07-16T02:28:10;14.13;;;10.10;;
70560;SDS011;58109;53.570;10.084;2023-07-16T02:30:39;12.70;;;11.03;;
70560;SDS011;58109;53.570;10.084;2023-07-16T02:33:05;18.63;;;13.53;;
70560;SDS011;58109;53.570;10.084;2023-07-16T02:35:33;14.60;;;10.80;;
70560;SDS011;58109;53.570;10.084;2023-07-16T02:38:00;42.90;;;23.30;;
70560;SDS011;58109;53.570;10.084;2023-07-16T02:40:29;14.20;;;11.03;;
70560;SDS011;58109;53.570;10.084;2023-07-16T02:42:54;10.87;;;9.67;;
70560;SDS011;58109;53.570;10.084;2023-07-16T02:45:19;15.03;;;11.43;;
70560;SDS011;58109;53.570;10.084;2023-07-16T02:47:45;8.13;;;7.43;;
70560;SDS011;58109;53.570;10.084;2023-07-16T02:50:10;11.57;;;10.43;;
70560;SDS011;58109;53.570;10.084;2023-07-16T02:52:36;14.43;;;12.90;;
70560;SDS011;58109;53.570;10.084;2023-07-16T02:55:04;13.93;;;11.30;;
70560;SDS011;58109;53.570;10.084;2023-07-16T02:57:29;16.30;;;13.03;;
70560;SDS011;58109;53.570;10.084;2023-07-16T02:59:59;23.23;;;17.00;;
70560;SDS011;58109;53.570;10.084;2023-07-16T03:02:25;15.30;;;12.50;;
70560;SDS011;58109;53.570;10.084;2023-07-16T03:04:52;17.40;;;11.80;;
70560;SDS011;58109;53.570;10.084;2023-07-16T03:07:18;15.47;;;12.70;;
70560;SDS011;58109;53.570;10.084;2023-07-16T03:09:48;24.43;;;17.50;;
70560;SDS011;58109;53.570;10.084;2023-07-16T03:12:13;8.87;;;7.03;;
70560;SDS011;58109;53.570;10.084;2023-07-16T03:14:39;7.20;;;5.60;;
70560;SDS011;58109;53.570;10.084;2023-07-16T03:17:04;6.97;;;6.37;;
70560;SDS011;58109;53.570;10.084;2023-07-16T03:19:31;8.20;;;6.80;;
70560;SDS011;58109;53.570;10.084;2023-07-16T03:21:59;8.23;;;7.27;;
70560;SDS011;58109;53.570;10.084;2023-07-16T03:24:28;8.00;;;7.40;;
70560;SDS011;58109;53.570;10.084;2023-07-16T03:26:55;7.60;;;5.70;;
70560;SDS011;58109;53.570;10.084;2023-07-16T03:29:21;13.83;;;8.83;;
70560;SDS011;58109;53.570;10.084;2023-07-16T03:31:49;10.73;;;6.93;;
70560;SDS011;58109;53.570;10.084;2023-07-16T03:34:16;10.20;;;7.73;;
70560;SDS011;58109;53.570;10.084;2023-07-16T03:36:42;10.43;;;7.53;;
70560;SDS011;58109;53.570;10.084;2023-07-16T03:39:11;8.57;;;7.23;;
70560;SDS011;58109;53.570;10.084;2023-07-16T03:41:36;15.40;;;7.83;;
70560;SDS011;58109;53.570;10.084;2023-07-16T03:44:02;9.47;;;7.77;;
70560;SDS011;58109;53.570;10.084;2023-07-16T03:46:27;10.27;;;8.63;;
70560;SDS011;58109;53.570;10.084;2023-07-16T03:48:55;8.73;;;7.90;;
70560;SDS011;58109;53.570;10.084;2023-07-16T03:51:20;17.73;;;11.93;;
70560;SDS011;58109;53.570;10.084;2023-07-16T03:53:51;13.27;;;10.33;;
70560;SDS011;58109;53.570;10.084;2023-07-16T03:56:16;12.60;;;11.33;;
70560;SDS011;58109;53.570;10.084;2023-07-16T03:58:42;13.07;;;11.83;;
70560;SDS011;58109;53.570;10.084;2023-07-16T04:01:09;16.13;;;11.60;;
70560;SDS011;58109;53.570;10.084;2023-07-16T04:03:35;20.43;;;14.20;;
70560;SDS011;58109;53.570;10.084;2023-07-16T04:06:04;19.03;;;14.43;;
70560;SDS011;58109;53.570;10.084;2023-07-16T04:08:34;28.77;;;19.47;;
70560;SDS011;58109;53.570;10.084;2023-07-16T04:11:00;19.23;;;15.13;;
70560;SDS011;58109;53.570;10.084;2023-07-16T04:13:28;14.43;;;10.13;;
70560;SDS011;58109;53.570;10.084;2023-07-16T04:15:56;16.03;;;9.37;;
70560;SDS011;58109;53.570;10.084;2023-07-16T04:18:22;15.67;;;14.00;;
70560;SDS011;58109;53.570;10.084;2023-07-16T04:20:55;14.10;;;12.77;;
70560;SDS011;58109;53.570;10.084;2023-07-16T04:23:21;14.23;;;11.70;;
70560;SDS011;58109;53.570;10.084;2023-07-16T04:25:53;14.50;;;13.03;;
70560;SDS011;58109;53.570;10.084;2023-07-16T04:28:21;8.00;;;6.00;;
70560;SDS011;58109;53.570;10.084;2023-07-16T04:30:49;8.57;;;5.73;;
70560;SDS011;58109;53.570;10.084;2023-07-16T04:33:14;9.63;;;8.03;;
70560;SDS011;58109;53.570;10.084;2023-07-16T04:35:44;10.40;;;8.47;;
70560;SDS011;58109;53.570;10.084;2023-07-16T04:38:09;10.97;;;9.97;;
70560;SDS011;58109;53.570;10.084;2023-07-16T04:40:37;9.40;;;5.17;;
70560;SDS011;58109;53.570;10.084;2023-07-16T04:43:05;8.60;;;3.03;;
70560;SDS011;58109;53.570;10.084;2023-07-16T04:45:32;3.70;;;2.47;;
70560;SDS011;58109;53.570;10.084;2023-07-16T04:47:58;3.43;;;2.67;;
70560;SDS011;58109;53.570;10.084;2023-07-16T04:50:26;3.93;;;2.97;;
70560;SDS011;58109;53.570;10.084;2023-07-16T04:52:54;15.67;;;7.40;;
70560;SDS011;58109;53.570;10.084;2023-07-16T04:55:22;19.63;;;9.83;;
70560;SDS011;58109;53.570;10.084;2023-07-16T04:57:50;12.93;;;10.13;;
70560;SDS011;58109;53.570;10.084;2023-07-16T05:00:18;5.30;;;3.27;;
70560;SDS011;58109;53.570;10.084;2023-07-16T05:02:46;8.83;;;8.00;;
70560;SDS011;58109;53.570;10.084;2023-07-16T05:05:11;4.90;;;4.40;;
70560;SDS011;58109;53.570;10.084;2023-07-16T05:07:39;3.87;;;3.00;;
70560;SDS011;58109;53.570;10.084;2023-07-16T05:10:04;3.93;;;3.63;;
70560;SDS011;58109;53.570;10.084;2023-07-16T05:12:32;6.60;;;3.97;;
70560;SDS011;58109;53.570;10.084;2023-07-16T05:14:58;5.37;;;4.03;;
70560;SDS011;58109;53.570;10.084;2023-07-16T05:17:23;9.57;;;5.20;;
70560;SDS011;58109;53.570;10.084;2023-07-16T05:19:49;6.30;;;3.00;;
70560;SDS011;58109;53.570;10.084;2023-07-16T05:22:14;13.10;;;4.90;;
70560;SDS011;58109;53.570;10.084;2023-07-16T05:24:42;11.13;;;3.40;;
70560;SDS011;58109;53.570;10.084;2023-07-16T05:27:10;8.83;;;4.70;;
70560;SDS011;58109;53.570;10.084;2023-07-16T05:29:38;5.60;;;4.60;;
70560;SDS011;58109;53.570;10.084;2023-07-16T05:32:08;4.60;;;3.40;;
70560;SDS011;58109;53.570;10.084;2023-07-16T05:34:36;4.93;;;3.90;;
70560;SDS011;58109;53.570;10.084;2023-07-16T05:37:01;7.33;;;4.03;;
70560;SDS011;58109;53.570;10.084;2023-07-16T05:39:32;8.30;;;4.30;;
70560;SDS011;58109;53.570;10.084;2023-07-16T05:42:00;9.80;;;4.30;;
70560;SDS011;58109;53.570;10.084;2023-07-16T05:44:27;5.87;;;4.13;;
70560;SDS011;58109;53.570;10.084;2023-07-16T05:46:57;5.77;;;3.93;;
70560;SDS011;58109;53.570;10.084;2023-07-16T05:49:23;4.47;;;3.80;;
70560;SDS011;58109;53.570;10.084;2023-07-16T05:51:50;7.57;;;5.40;;
70560;SDS011;58109;53.570;10.084;2023-07-16T05:54:16;7.17;;;3.60;;
70560;SDS011;58109;53.570;10.084;2023-07-16T05:56:41;3.90;;;3.30;;
70560;SDS011;58109;53.570;10.084;2023-07-16T05:59:11;5.30;;;4.07;;
70560;SDS011;58109;53.570;10.084;2023-07-16T06:01:39;8.97;;;4.30;;
70560;SDS011;58109;53.570;10.084;2023-07-16T06:04:04;11.53;;;4.80;;
70560;SDS011;58109;53.570;10.084;2023-07-16T06:06:30;14.93;;;2.73;;
70560;SDS011;58109;53.570;10.084;2023-07-16T06:08:55;11.40;;;2.90;;
70560;SDS011;58109;53.570;10.084;2023-07-16T06:11:23;12.53;;;11.33;;
70560;SDS011;58109;53.570;10.084;2023-07-16T06:13:49;10.17;;;9.10;;
70560;SDS011;58109;53.570;10.084;2023-07-16T06:16:14;9.63;;;8.60;;
70560;SDS011;58109;53.570;10.084;2023-07-16T06:18:44;5.70;;;4.73;;
70560;SDS011;58109;53.570;10.084;2023-07-16T06:21:12;24.53;;;6.53;;
70560;SDS011;58109;53.570;10.084;2023-07-16T06:23:37;9.60;;;6.53;;
70560;SDS011;58109;53.570;10.084;2023-07-16T06:26:06;6.53;;;4.77;;
70560;SDS011;58109;53.570;10.084;2023-07-16T06:28:31;10.57;;;5.30;;
70560;SDS011;58109;53.570;10.084;2023-07-16T06:30:59;7.40;;;4.20;;
70560;SDS011;58109;53.570;10.084;2023-07-16T06:33:25;6.83;;;5.30;;
70560;SDS011;58109;53.570;10.084;2023-07-16T06:35:55;11.70;;;6.57;;
70560;SDS011;58109;53.570;10.084;2023-07-16T06:38:21;10.70;;;6.27;;
70560;SDS011;58109;53.570;10.084;2023-07-16T06:40:47;7.47;;;4.77;;
70560;SDS011;58109;53.570;10.084;2023-07-16T06:43:18;9.17;;;6.93;;
70560;SDS011;58109;53.570;10.084;2023-07-16T06:45:44;9.93;;;4.50;;
70560;SDS011;58109;53.570;10.084;2023-07-16T06:48:09;12.47;;;7.20;;
70560;SDS011;58109;53.570;10.084;2023-07-16T06:50:35;11.37;;;9.20;;
70560;SDS011;58109;53.570;10.084;2023-07-16T06:53:03;21.63;;;12.60;;
70560;SDS011;58109;53.570;10.084;2023-07-16T06:55:28;26.13;;;14.23;;
70560;SDS011;58109;53.570;10.084;2023-07-16T06:57:54;30.47;;;11.80;;
70560;SDS011;58109;53.570;10.084;2023-07-16T07:00:22;24.60;;;17.07;;
70560;SDS011;58109;53.570;10.084;2023-07-16T07:02:47;33.60;;;18.80;;
70560;SDS011;58109;53.570;10.084;2023-07-16T07:05:12;51.07;;;24.40;;
70560;SDS011;58109;53.570;10.084;2023-07-16T07:07:38;15.23;;;9.20;;
70560;SDS011;58109;53.570;10.084;2023-07-16T07:10:06;20.93;;;14.30;;
70560;SDS011;58109;53.570;10.084;2023-07-16T07:12:34;23.23;;;13.17;;
70560;SDS011;58109;53.570;10.084;2023-07-16T07:15:05;18.00;;;12.70;;
70560;SDS011;58109;53.570;10.084;2023-07-16T07:17:39;39.43;;;20.80;;
70560;SDS011;58109;53.570;10.084;2023-07-16T07:20:05;40.57;;;21.70;;
70560;SDS011;58109;53.570;10.084;2023-07-16T07:22:33;9.43;;;6.27;;
70560;SDS011;58109;53.570;10.084;2023-07-16T07:25:01;14.60;;;6.90;;
70560;SDS011;58109;53.570;10.084;2023-07-16T07:27:29;12.83;;;7.23;;
70560;SDS011;58109;53.570;10.084;2023-07-16T07:29:57;17.30;;;8.50;;
70560;SDS011;58109;53.570;10.084;2023-07-16T07:32:22;20.87;;;11.43;;
70560;SDS011;58109;53.570;10.084;2023-07-16T07:34:48;12.93;;;8.30;;
70560;SDS011;58109;53.570;10.084;2023-07-16T07:37:16;12.57;;;6.93;;
70560;SDS011;58109;53.570;10.084;2023-07-16T07:39:44;12.37;;;8.27;;
70560;SDS011;58109;53.570;10.084;2023-07-16T07:42:12;10.30;;;6.70;;
70560;SDS011;58109;53.570;10.084;2023-07-16T07:44:40;13.53;;;9.40;;
70560;SDS011;58109;53.570;10.084;2023-07-16T07:47:05;13.30;;;8.63;;
70560;SDS011;58109;53.570;10.084;2023-07-16T07:49:32;15.70;;;8.00;;
70560;SDS011;58109;53.570;10.084;2023-07-16T07:51:58;9.77;;;5.47;;
70560;SDS011;58109;53.570;10.084;2023-07-16T07:54:23;9.70;;;7.03;;
70560;SDS011;58109;53.570;10.084;2023-07-16T07:56:51;28.27;;;7.60;;
70560;SDS011;58109;53.570;10.084;2023-07-16T07:59:16;9.20;;;5.77;;
70560;SDS011;58109;53.570;10.084;2023-07-16T08:01:44;10.43;;;6.03;;
70560;SDS011;58109;53.570;10.084;2023-07-16T08:04:09;12.90;;;6.70;;
70560;SDS011;58109;53.570;10.084;2023-07-16T08:06:35;16.60;;;10.43;;
70560;SDS011;58109;53.570;10.084;2023-07-16T08:09:00;13.03;;;7.87;;
70560;SDS011;58109;53.570;10.084;2023-07-16T08:11:28;20.03;;;9.50;;
70560;SDS011;58109;53.570;10.084;2023-07-16T08:13:56;35.47;;;16.90;;
70560;SDS011;58109;53.570;10.084;2023-07-16T08:16:24;42.10;;;23.33;;
70560;SDS011;58109;53.570;10.084;2023-07-16T08:18:52;44.53;;;23.90;;
70560;SDS011;58109;53.570;10.084;2023-07-16T08:21:17;32.50;;;20.60;;
70560;SDS011;58109;53.570;10.084;2023-07-16T08:23:46;18.23;;;10.97;;
70560;SDS011;58109;53.570;10.084;2023-07-16T08:26:16;29.30;;;12.80;;
70560;SDS011;58109;53.570;10.084;2023-07-16T08:28:42;14.83;;;10.70;;
70560;SDS011;58109;53.570;10.084;2023-07-16T08:31:10;21.70;;;15.33;;
70560;SDS011;58109;53.570;10.084;2023-07-16T08:33:38;11.57;;;10.33;;
70560;SDS011;58109;53.570;10.084;2023-07-16T08:36:06;15.90;;;12.20;;
70560;SDS011;58109;53.570;10.084;2023-07-16T08:38:32;16.53;;;14.13;;
70560;SDS011;58109;53.570;10.084;2023-07-16T08:40:59;16.07;;;11.53;;
70560;SDS011;58109;53.570;10.084;2023-07-16T08:43:25;32.23;;;19.17;;
70560;SDS011;58109;53.570;10.084;2023-07-16T08:45:50;45.10;;;20.87;;
70560;SDS011;58109;53.570;10.084;2023-07-16T08:48:16;40.30;;;22.23;;
70560;SDS011;58109;53.570;10.084;2023-07-16T08:50:43;60.43;;;29.10;;
70560;SDS011;58109;53.570;10.084;2023-07-16T08:53:19;15.80;;;12.57;;
70560;SDS011;58109;53.570;10.084;2023-07-16T08:55:48;21.73;;;14.90;;
70560;SDS011;58109;53.570;10.084;2023-07-16T08:58:14;60.77;;;29.13;;
70560;SDS011;58109;53.570;10.084;2023-07-16T09:00:42;160.03;;;54.73;;
70560;SDS011;58109;53.570;10.084;2023-07-16T09:03:08;9.90;;;9.00;;
70560;SDS011;58109;53.570;10.084;2023-07-16T09:05:36;17.10;;;13.97;;
70560;SDS011;58109;53.570;10.084;2023-07-16T09:08:01;26.97;;;15.70;;
70560;SDS011;58109;53.570;10.084;2023-07-16T09:10:28;24.40;;;18.17;;
70560;SDS011;58109;53.570;10.084;2023-07-16T09:12:57;21.23;;;7.93;;
70560;SDS011;58109;53.570;10.084;2023-07-16T09:15:23;15.30;;;11.30;;
70560;SDS011;58109;53.570;10.084;2023-07-16T09:17:54;25.20;;;18.40;;
70560;SDS011;58109;53.570;10.084;2023-07-16T09:20:20;20.73;;;11.67;;
70560;SDS011;58109;53.570;10.084;2023-07-16T09:22:48;67.23;;;32.80;;
70560;SDS011;58109;53.570;10.084;2023-07-16T09:25:16;29.03;;;18.87;;
70560;SDS011;58109;53.570;10.084;2023-07-16T09:27:42;103.47;;;37.03;;
70560;SDS011;58109;53.570;10.084;2023-07-16T09:30:14;13.27;;;9.27;;
70560;SDS011;58109;53.570;10.084;2023-07-16T09:32:42;27.63;;;16.53;;
70560;SDS011;58109;53.570;10.084;2023-07-16T09:35:12;89.00;;;35.57;;
70560;SDS011;58109;53.570;10.084;2023-07-16T09:37:41;17.90;;;11.33;;
70560;SDS011;58109;53.570;10.084;2023-07-16T09:40:10;10.33;;;8.00;;
70560;SDS011;58109;53.570;10.084;2023-07-16T09:45:08;9.43;;;8.40;;
70560;SDS011;58109;53.570;10.084;2023-07-16T09:47:38;12.80;;;8.50;;
70560;SDS011;58109;53.570;10.084;2023-07-16T09:50:04;14.20;;;6.30;;
70560;SDS011;58109;53.570;10.084;2023-07-16T09:52:30;9.80;;;5.43;;
70560;SDS011;58109;53.570;10.084;2023-07-16T09:55:00;9.27;;;5.30;;
70560;SDS011;58109;53.570;10.084;2023-07-16T09:57:26;14.43;;;4.90;;
70560;SDS011;58109;53.570;10.084;2023-07-16T09:59:57;12.10;;;7.30;;
70560;SDS011;58109;53.570;10.084;2023-07-16T10:02:28;9.23;;;6.43;;
70560;SDS011;58109;53.570;10.084;2023-07-16T10:04:54;17.43;;;9.83;;
70560;SDS011;58109;53.570;10.084;2023-07-16T10:07:21;12.93;;;6.20;;
70560;SDS011;58109;53.570;10.084;2023-07-16T10:09:53;18.73;;;7.40;;
70560;SDS011;58109;53.570;10.084;2023-07-16T10:12:21;15.20;;;8.73;;
70560;SDS011;58109;53.570;10.084;2023-07-16T10:14:50;12.53;;;7.43;;
70560;SDS011;58109;53.570;10.084;2023-07-16T10:17:26;14.03;;;8.83;;
70560;SDS011;58109;53.570;10.084;2023-07-16T10:19:56;18.03;;;5.50;;
70560;SDS011;58109;53.570;10.084;2023-07-16T10:22:38;9.57;;;5.47;;
70560;SDS011;58109;53.570;10.084;2023-07-16T10:27:43;8.80;;;3.93;;
70560;SDS011;58109;53.570;10.084;2023-07-16T10:30:12;14.90;;;5.73;;
70560;SDS011;58109;53.570;10.084;2023-07-16T10:32:39;10.97;;;7.00;;
70560;SDS011;58109;53.570;10.084;2023-07-16T10:35:05;17.43;;;10.20;;
70560;SDS011;58109;53.570;10.084;2023-07-16T10:37:34;17.53;;;11.57;;
70560;SDS011;58109;53.570;10.084;2023-07-16T10:40:03;15.40;;;11.87;;
70560;SDS011;58109;53.570;10.084;2023-07-16T10:42:32;9.43;;;6.20;;
70560;SDS011;58109;53.570;10.084;2023-07-16T10:44:59;13.73;;;5.80;;
70560;SDS011;58109;53.570;10.084;2023-07-16T10:47:29;12.23;;;6.73;;
70560;SDS011;58109;53.570;10.084;2023-07-16T10:49:57;15.83;;;10.23;;
70560;SDS011;58109;53.570;10.084;2023-07-16T10:52:23;21.20;;;12.40;;
70560;SDS011;58109;53.570;10.084;2023-07-16T10:54:52;23.30;;;12.03;;
70560;SDS011;58109;53.570;10.084;2023-07-16T10:57:22;10.67;;;4.30;;
70560;SDS011;58109;53.570;10.084;2023-07-16T10:59:52;9.07;;;5.50;;
70560;SDS011;58109;53.570;10.084;2023-07-16T11:02:22;18.47;;;13.33;;
70560;SDS011;58109;53.570;10.084;2023-07-16T11:04:52;16.30;;;7.70;;
70560;SDS011;58109;53.570;10.084;2023-07-16T11:07:18;13.33;;;8.83;;
70560;SDS011;58109;53.570;10.084;2023-07-16T11:12:14;35.57;;;20.17;;
70560;SDS011;58109;53.570;10.084;2023-07-16T11:14:51;62.57;;;29.50;;
70560;SDS011;58109;53.570;10.084;2023-07-16T11:17:21;28.60;;;19.80;;
70560;SDS011;58109;53.570;10.084;2023-07-16T11:19:50;25.13;;;18.80;;
70560;SDS011;58109;53.570;10.084;2023-07-16T11:22:17;9.50;;;7.97;;
70560;SDS011;58109;53.570;10.084;2023-07-16T11:24:46;16.27;;;10.33;;
70560;SDS011;58109;53.570;10.084;2023-07-16T11:29:46;34.40;;;21.10;;
70560;SDS011;58109;53.570;10.084;2023-07-16T11:32:36;186.10;;;61.27;;
70560;SDS011;58109;53.570;10.084;2023-07-16T11:35:08;170.77;;;55.40;;
70560;SDS011;58109;53.570;10.084;2023-07-16T11:37:36;49.17;;;27.63;;
70560;SDS011;58109;53.570;10.084;2023-07-16T11:40:08;196.20;;;63.43;;
70560;SDS011;58109;53.570;10.084;2023-07-16T11:42:35;99.03;;;40.00;;
70560;SDS011;58109;53.570;10.084;2023-07-16T11:45:02;85.63;;;37.73;;
70560;SDS011;58109;53.570;10.084;2023-07-16T11:47:29;112.90;;;44.00;;
70560;SDS011;58109;53.570;10.084;2023-07-16T11:49:54;58.17;;;28.40;;
70560;SDS011;58109;53.570;10.084;2023-07-16T11:52:27;274.40;;;79.80;;
70560;SDS011;58109;53.570;10.084;2023-07-16T11:54:58;65.30;;;31.33;;
70560;SDS011;58109;53.570;10.084;2023-07-16T11:57:30;96.67;;;39.70;;
70560;SDS011;58109;53.570;10.084;2023-07-16T11:59:56;225.83;;;67.57;;
70560;SDS011;58109;53.570;10.084;2023-07-16T12:02:21;24.33;;;16.83;;
70560;SDS011;58109;53.570;10.084;2023-07-16T12:04:50;22.60;;;17.80;;
70560;SDS011;58109;53.570;10.084;2023-07-16T12:07:33;128.23;;;46.43;;
70560;SDS011;58109;53.570;10.084;2023-07-16T12:10:00;18.60;;;13.73;;
70560;SDS011;58109;53.570;10.084;2023-07-16T12:12:26;22.20;;;15.60;;
70560;SDS011;58109;53.570;10.084;2023-07-16T12:14:51;22.80;;;15.27;;
70560;SDS011;58109;53.570;10.084;2023-07-16T12:17:17;16.97;;;13.50;;
70560;SDS011;58109;53.570;10.084;2023-07-16T12:19:42;18.03;;;14.90;;
70560;SDS011;58109;53.570;10.084;2023-07-16T12:22:08;15.30;;;11.93;;
70560;SDS011;58109;53.570;10.084;2023-07-16T12:24:34;13.33;;;10.97;;
70560;SDS011;58109;53.570;10.084;2023-07-16T12:26:59;26.73;;;18.10;;
70560;SDS011;58109;53.570;10.084;2023-07-16T12:29:33;36.03;;;22.63;;
70560;SDS011;58109;53.570;10.084;2023-07-16T12:31:59;41.07;;;25.00;;
70560;SDS011;58109;53.570;10.084;2023-07-16T12:34:25;54.40;;;29.50;;
70560;SDS011;58109;53.570;10.084;2023-07-16T12:36:50;40.43;;;24.10;;
70560;SDS011;58109;53.570;10.084;2023-07-16T12:39:19;71.77;;;35.67;;
70560;SDS011;58109;53.570;10.084;2023-07-16T12:41:47;39.90;;;24.90;;
70560;SDS011;58109;53.570;10.084;2023-07-16T12:44:14;56.80;;;27.43;;
70560;SDS011;58109;53.570;10.084;2023-07-16T12:46:42;52.63;;;28.10;;
70560;SDS011;58109;53.570;10.084;2023-07-16T12:49:07;45.43;;;27.60;;
70560;SDS011;58109;53.570;10.084;2023-07-16T12:51:32;95.87;;;40.50;;
70560;SDS011;58109;53.570;10.084;2023-07-16T12:54:01;134.17;;;50.07;;
70560;SDS011;58109;53.570;10.084;2023-07-16T12:56:26;144.60;;;54.87;;
70560;SDS011;58109;53.570;10.084;2023-07-16T12:58:52;128.07;;;48.90;;
70560;SDS011;58109;53.570;10.084;2023-07-16T13:01:20;108.73;;;45.80;;
70560;SDS011;58109;53.570;10.084;2023-07-16T13:03:45;108.50;;;45.07;;
70560;SDS011;58109;53.570;10.084;2023-07-16T13:06:13;122.87;;;48.27;;
70560;SDS011;58109;53.570;10.084;2023-07-16T13:08:38;148.63;;;52.13;;
70560;SDS011;58109;53.570;10.084;2023-07-16T13:14:06;65.67;;;32.50;;
70560;SDS011;58109;53.570;10.084;2023-07-16T13:16:36;110.57;;;44.03;;
70560;SDS011;58109;53.570;10.084;2023-07-16T13:19:03;104.63;;;43.90;;
70560;SDS011;58109;53.570;10.084;2023-07-16T13:21:31;46.27;;;27.73;;
70560;SDS011;58109;53.570;10.084;2023-07-16T13:23:59;50.33;;;27.07;;
70560;SDS011;58109;53.570;10.084;2023-07-16T13:26:31;53.47;;;30.10;;
70560;SDS011;58109;53.570;10.084;2023-07-16T13:28:57;55.27;;;30.93;;
70560;SDS011;58109;53.570;10.084;2023-07-16T13:31:25;59.57;;;30.70;;
70560;SDS011;58109;53.570;10.084;2023-07-16T13:33:50;68.20;;;31.00;;
70560;SDS011;58109;53.570;10.084;2023-07-16T13:36:16;48.33;;;27.73;;
70560;SDS011;58109;53.570;10.084;2023-07-16T13:38:44;58.97;;;31.40;;
70560;SDS011;58109;53.570;10.084;2023-07-16T13:41:09;121.97;;;44.13;;
70560;SDS011;58109;53.570;10.084;2023-07-16T13:43:37;72.97;;;33.93;;
70560;SDS011;58109;53.570;10.084;2023-07-16T13:46:03;160.57;;;57.13;;
70560;SDS011;58109;53.570;10.084;2023-07-16T13:48:28;148.10;;;54.63;;
70560;SDS011;58109;53.570;10.084;2023-07-16T13:50:54;397.87;;;119.23;;
70560;SDS011;58109;53.570;10.084;2023-07-16T13:53:19;94.30;;;41.70;;
70560;SDS011;58109;53.570;10.084;2023-07-16T13:55:47;88.90;;;40.33;;
70560;SDS011;58109;53.570;10.084;2023-07-16T13:58:12;103.23;;;43.13;;
70560;SDS011;58109;53.570;10.084;2023-07-16T14:00:40;80.07;;;38.30;;
70560;SDS011;58109;53.570;10.084;2023-07-16T14:03:05;81.33;;;38.77;;
70560;SDS011;58109;53.570;10.084;2023-07-16T14:05:31;94.57;;;41.00;;
70560;SDS011;58109;53.570;10.084;2023-07-16T14:08:03;105.17;;;43.77;;
70560;SDS011;58109;53.570;10.084;2023-07-16T14:10:31;123.90;;;48.83;;
70560;SDS011;58109;53.570;10.084;2023-07-16T14:12:56;194.13;;;63.70;;
70560;SDS011;58109;53.570;10.084;2023-07-16T14:15:22;111.17;;;45.63;;
70560;SDS011;58109;53.570;10.084;2023-07-16T14:17:48;113.73;;;46.47;;
70560;SDS011;58109;53.570;10.084;2023-07-16T14:20:13;137.57;;;52.77;;
70560;SDS011;58109;53.570;10.084;2023-07-16T14:22:43;212.20;;;67.20;;
70560;SDS011;58109;53.570;10.084;2023-07-16T14:25:09;236.00;;;71.70;;
70560;SDS011;58109;53.570;10.084;2023-07-16T14:27:34;176.23;;;59.53;;
70560;SDS011;58109;53.570;10.084;2023-07-16T14:30:02;317.93;;;92.20;;
70560;SDS011;58109;53.570;10.084;2023-07-16T14:32:28;352.47;;;97.97;;
70560;SDS011;58109;53.570;10.084;2023-07-16T14:34:56;272.07;;;79.27;;
70560;SDS011;58109;53.570;10.084;2023-07-16T14:37:22;236.83;;;72.70;;
70560;SDS011;58109;53.570;10.084;2023-07-16T14:39:47;173.37;;;58.80;;
70560;SDS011;58109;53.570;10.084;2023-07-16T14:42:13;135.23;;;52.10;;
70560;SDS011;58109;53.570;10.084;2023-07-16T14:44:43;215.70;;;69.07;;